sensor_id;sensor_type;location;lat;lon;timestamp;P1;durP1;ratioP1;P2;durP2;ratioP2
45522;SDS011;31254;51.680;5.394;2023-07-22T00:00:41;8.48;;;6.43;;
45522;SDS011;31254;51.680;5.394;2023-07-22T00:03:08;10.93;;;7.40;;
45522;SDS011;31254;51.680;5.394;2023-07-22T00:05:39;8.98;;;7.07;;
45522;SDS011;31254;51.680;5.394;2023-07-22T00:08:06;9.90;;;7.50;;
45522;SDS011;31254;51.680;5.394;2023-07-22T00:10:40;11.35;;;7.70;;
45522;SDS011;31254;51.680;5.394;2023-07-22T00:13:11;10.95;;;7.80;;
45522;SDS011;31254;51.680;5.394;2023-07-22T00:15:45;10.40;;;7.03;;
45522;SDS011;31254;51.680;5.394;2023-07-22T00:18:13;9.77;;;7.28;;
45522;SDS011;31254;51.680;5.394;2023-07-22T00:20:41;10.35;;;7.28;;
45522;SDS011;31254;51.680;5.394;2023-07-22T00:23:10;11.85;;;7.80;;
45522;SDS011;31254;51.680;5.394;2023-07-22T00:25:38;10.77;;;7.68;;
45522;SDS011;31254;51.680;5.394;2023-07-22T00:28:16;11.32;;;7.80;;
45522;SDS011;31254;51.680;5.394;2023-07-22T00:30:46;9.32;;;7.13;;
45522;SDS011;31254;51.680;5.394;2023-07-22T00:33:15;9.80;;;7.30;;
45522;SDS011;31254;51.680;5.394;2023-07-22T00:35:47;13.10;;;7.57;;
45522;SDS011;31254;51.680;5.394;2023-07-22T00:38:20;10.90;;;7.78;;
45522;SDS011;31254;51.680;5.394;2023-07-22T00:40:49;11.93;;;8.07;;
45522;SDS011;31254;51.680;5.394;2023-07-22T00:43:21;9.88;;;7.65;;
45522;SDS011;31254;51.680;5.394;2023-07-22T00:46:02;12.45;;;8.85;;
45522;SDS011;31254;51.680;5.394;2023-07-22T01:01:24;11.15;;;7.95;;
45522;SDS011;31254;51.680;5.394;2023-07-22T01:04:57;13.82;;;7.97;;
45522;SDS011;31254;51.680;5.394;2023-07-22T01:12:47;14.82;;;8.65;;
45522;SDS011;31254;51.680;5.394;2023-07-22T01:15:37;12.20;;;8.25;;
45522;SDS011;31254;51.680;5.394;2023-07-22T01:26:22;12.77;;;8.38;;
45522;SDS011;31254;51.680;5.394;2023-07-22T01:29:30;14.23;;;8.75;;
45522;SDS011;31254;51.680;5.394;2023-07-22T01:32:19;13.38;;;8.45;;
45522;SDS011;31254;51.680;5.394;2023-07-22T01:37:55;11.57;;;7.93;;
45522;SDS011;31254;51.680;5.394;2023-07-22T01:40:24;13.50;;;8.55;;
45522;SDS011;31254;51.680;5.394;2023-07-22T01:42:52;12.35;;;8.35;;
45522;SDS011;31254;51.680;5.394;2023-07-22T01:45:21;12.88;;;9.23;;
45522;SDS011;31254;51.680;5.394;2023-07-22T01:48:00;12.98;;;8.70;;
45522;SDS011;31254;51.680;5.394;2023-07-22T01:50:28;12.25;;;8.15;;
45522;SDS011;31254;51.680;5.394;2023-07-22T01:52:56;16.15;;;9.35;;
45522;SDS011;31254;51.680;5.394;2023-07-22T01:55:25;12.80;;;9.18;;
45522;SDS011;31254;51.680;5.394;2023-07-22T01:57:54;13.43;;;8.07;;
45522;SDS011;31254;51.680;5.394;2023-07-22T02:00:21;13.55;;;8.30;;
45522;SDS011;31254;51.680;5.394;2023-07-22T02:02:49;12.23;;;8.18;;
45522;SDS011;31254;51.680;5.394;2023-07-22T02:05:17;11.38;;;7.70;;
45522;SDS011;31254;51.680;5.394;2023-07-22T02:08:07;12.57;;;8.80;;
45522;SDS011;31254;51.680;5.394;2023-07-22T02:10:38;14.85;;;9.05;;
45522;SDS011;31254;51.680;5.394;2023-07-22T02:13:05;14.45;;;8.13;;
45522;SDS011;31254;51.680;5.394;2023-07-22T02:15:35;11.93;;;8.25;;
45522;SDS011;31254;51.680;5.394;2023-07-22T02:18:19;12.55;;;8.18;;
45522;SDS011;31254;51.680;5.394;2023-07-22T02:23:47;11.57;;;7.70;;
45522;SDS011;31254;51.680;5.394;2023-07-22T02:26:18;12.98;;;8.07;;
45522;SDS011;31254;51.680;5.394;2023-07-22T02:28:56;13.85;;;8.07;;
45522;SDS011;31254;51.680;5.394;2023-07-22T02:31:27;12.07;;;7.82;;
45522;SDS011;31254;51.680;5.394;2023-07-22T02:33:56;14.52;;;8.13;;
45522;SDS011;31254;51.680;5.394;2023-07-22T02:36:23;12.07;;;8.45;;
45522;SDS011;31254;51.680;5.394;2023-07-22T02:38:51;10.38;;;7.38;;
45522;SDS011;31254;51.680;5.394;2023-07-22T02:41:27;13.75;;;8.55;;
45522;SDS011;31254;51.680;5.394;2023-07-22T02:43:55;11.10;;;7.85;;
45522;SDS011;31254;51.680;5.394;2023-07-22T02:46:22;12.10;;;8.00;;
45522;SDS011;31254;51.680;5.394;2023-07-22T02:48:51;13.25;;;7.65;;
45522;SDS011;31254;51.680;5.394;2023-07-22T02:51:27;12.15;;;7.68;;
45522;SDS011;31254;51.680;5.394;2023-07-22T02:54:04;11.43;;;7.80;;
45522;SDS011;31254;51.680;5.394;2023-07-22T03:04:53;12.38;;;8.48;;
45522;SDS011;31254;51.680;5.394;2023-07-22T03:13:47;14.82;;;8.30;;
45522;SDS011;31254;51.680;5.394;2023-07-22T03:20:08;12.48;;;7.97;;
45522;SDS011;31254;51.680;5.394;2023-07-22T03:22:41;15.02;;;8.63;;
45522;SDS011;31254;51.680;5.394;2023-07-22T03:32:11;12.40;;;8.57;;
45522;SDS011;31254;51.680;5.394;2023-07-22T03:34:58;13.20;;;8.85;;
45522;SDS011;31254;51.680;5.394;2023-07-22T03:37:35;12.68;;;8.20;;
45522;SDS011;31254;51.680;5.394;2023-07-22T03:40:09;14.27;;;9.23;;
45522;SDS011;31254;51.680;5.394;2023-07-22T03:50:32;15.02;;;8.50;;
45522;SDS011;31254;51.680;5.394;2023-07-22T03:53:02;13.70;;;8.65;;
45522;SDS011;31254;51.680;5.394;2023-07-22T04:02:29;15.25;;;8.07;;
45522;SDS011;31254;51.680;5.394;2023-07-22T04:18:26;12.80;;;8.52;;
45522;SDS011;31254;51.680;5.394;2023-07-22T04:21:17;15.63;;;9.10;;
45522;SDS011;31254;51.680;5.394;2023-07-22T04:23:55;13.63;;;8.52;;
45522;SDS011;31254;51.680;5.394;2023-07-22T04:27:01;12.15;;;8.75;;
45522;SDS011;31254;51.680;5.394;2023-07-22T04:29:47;12.68;;;9.13;;
45522;SDS011;31254;51.680;5.394;2023-07-22T04:33:14;12.77;;;8.52;;
45522;SDS011;31254;51.680;5.394;2023-07-22T04:48:24;12.77;;;8.77;;
45522;SDS011;31254;51.680;5.394;2023-07-22T04:50:51;14.90;;;8.88;;
45522;SDS011;31254;51.680;5.394;2023-07-22T04:53:18;13.52;;;8.57;;
45522;SDS011;31254;51.680;5.394;2023-07-22T04:55:47;13.30;;;8.38;;
45522;SDS011;31254;51.680;5.394;2023-07-22T04:58:16;12.35;;;8.73;;
45522;SDS011;31254;51.680;5.394;2023-07-22T05:00:46;13.88;;;9.07;;
45522;SDS011;31254;51.680;5.394;2023-07-22T05:03:14;13.73;;;9.15;;
45522;SDS011;31254;51.680;5.394;2023-07-22T05:05:42;12.68;;;9.13;;
45522;SDS011;31254;51.680;5.394;2023-07-22T05:08:09;13.07;;;8.23;;
45522;SDS011;31254;51.680;5.394;2023-07-22T05:10:37;13.95;;;8.57;;
45522;SDS011;31254;51.680;5.394;2023-07-22T05:13:04;14.25;;;8.82;;
45522;SDS011;31254;51.680;5.394;2023-07-22T05:15:31;11.95;;;8.35;;
45522;SDS011;31254;51.680;5.394;2023-07-22T05:17:58;13.82;;;8.80;;
45522;SDS011;31254;51.680;5.394;2023-07-22T05:20:24;12.98;;;8.15;;
45522;SDS011;31254;51.680;5.394;2023-07-22T05:22:51;14.77;;;8.60;;
45522;SDS011;31254;51.680;5.394;2023-07-22T05:25:21;13.25;;;8.80;;
45522;SDS011;31254;51.680;5.394;2023-07-22T05:27:48;15.55;;;9.50;;
45522;SDS011;31254;51.680;5.394;2023-07-22T05:30:16;14.10;;;8.80;;
45522;SDS011;31254;51.680;5.394;2023-07-22T05:32:59;13.57;;;8.73;;
45522;SDS011;31254;51.680;5.394;2023-07-22T05:35:29;12.60;;;8.77;;
45522;SDS011;31254;51.680;5.394;2023-07-22T05:38:00;14.40;;;9.07;;
45522;SDS011;31254;51.680;5.394;2023-07-22T05:40:30;15.60;;;9.00;;
45522;SDS011;31254;51.680;5.394;2023-07-22T05:42:59;13.07;;;9.05;;
45522;SDS011;31254;51.680;5.394;2023-07-22T05:45:27;14.98;;;8.68;;
45522;SDS011;31254;51.680;5.394;2023-07-22T05:47:54;14.63;;;8.82;;
45522;SDS011;31254;51.680;5.394;2023-07-22T05:50:21;14.27;;;10.10;;
45522;SDS011;31254;51.680;5.394;2023-07-22T05:52:49;14.15;;;9.23;;
45522;SDS011;31254;51.680;5.394;2023-07-22T05:55:17;13.40;;;9.20;;
45522;SDS011;31254;51.680;5.394;2023-07-22T05:57:44;14.63;;;9.77;;
45522;SDS011;31254;51.680;5.394;2023-07-22T06:00:11;18.10;;;10.18;;
45522;SDS011;31254;51.680;5.394;2023-07-22T06:02:39;17.35;;;9.90;;
45522;SDS011;31254;51.680;5.394;2023-07-22T06:05:06;14.70;;;10.10;;
45522;SDS011;31254;51.680;5.394;2023-07-22T06:07:37;15.85;;;9.25;;
45522;SDS011;31254;51.680;5.394;2023-07-22T06:10:04;17.40;;;10.52;;
45522;SDS011;31254;51.680;5.394;2023-07-22T06:12:31;14.20;;;9.63;;
45522;SDS011;31254;51.680;5.394;2023-07-22T06:14:58;18.58;;;10.68;;
45522;SDS011;31254;51.680;5.394;2023-07-22T06:17:25;15.93;;;10.02;;
45522;SDS011;31254;51.680;5.394;2023-07-22T06:19:52;15.45;;;10.40;;
45522;SDS011;31254;51.680;5.394;2023-07-22T06:22:19;18.70;;;10.73;;
45522;SDS011;31254;51.680;5.394;2023-07-22T06:24:46;18.02;;;10.65;;
45522;SDS011;31254;51.680;5.394;2023-07-22T06:27:13;15.60;;;10.35;;
45522;SDS011;31254;51.680;5.394;2023-07-22T06:29:39;17.88;;;10.57;;
45522;SDS011;31254;51.680;5.394;2023-07-22T06:32:06;17.20;;;10.18;;
45522;SDS011;31254;51.680;5.394;2023-07-22T06:34:36;17.80;;;10.85;;
45522;SDS011;31254;51.680;5.394;2023-07-22T06:37:03;15.93;;;10.10;;
45522;SDS011;31254;51.680;5.394;2023-07-22T06:39:30;16.65;;;10.30;;
45522;SDS011;31254;51.680;5.394;2023-07-22T06:41:57;16.95;;;10.27;;
45522;SDS011;31254;51.680;5.394;2023-07-22T06:44:26;16.63;;;9.93;;
45522;SDS011;31254;51.680;5.394;2023-07-22T06:46:53;19.17;;;9.68;;
45522;SDS011;31254;51.680;5.394;2023-07-22T06:49:23;16.88;;;10.38;;
45522;SDS011;31254;51.680;5.394;2023-07-22T06:51:49;15.55;;;10.82;;
45522;SDS011;31254;51.680;5.394;2023-07-22T06:54:16;18.45;;;10.70;;
45522;SDS011;31254;51.680;5.394;2023-07-22T06:56:45;15.43;;;9.45;;
45522;SDS011;31254;51.680;5.394;2023-07-22T06:59:12;20.73;;;10.65;;
45522;SDS011;31254;51.680;5.394;2023-07-22T07:01:39;17.13;;;10.60;;
45522;SDS011;31254;51.680;5.394;2023-07-22T07:04:06;16.15;;;10.80;;
45522;SDS011;31254;51.680;5.394;2023-07-22T07:06:33;19.75;;;10.30;;
45522;SDS011;31254;51.680;5.394;2023-07-22T07:08:59;16.48;;;10.85;;
45522;SDS011;31254;51.680;5.394;2023-07-22T07:11:29;18.60;;;10.15;;
45522;SDS011;31254;51.680;5.394;2023-07-22T07:14:00;18.27;;;10.88;;
45522;SDS011;31254;51.680;5.394;2023-07-22T07:16:33;19.08;;;9.70;;
45522;SDS011;31254;51.680;5.394;2023-07-22T07:19:26;18.33;;;9.93;;
45522;SDS011;31254;51.680;5.394;2023-07-22T07:22:09;17.67;;;10.50;;
45522;SDS011;31254;51.680;5.394;2023-07-22T07:24:46;13.70;;;9.38;;
45522;SDS011;31254;51.680;5.394;2023-07-22T07:27:33;15.55;;;9.48;;
45522;SDS011;31254;51.680;5.394;2023-07-22T07:30:16;16.55;;;9.40;;
45522;SDS011;31254;51.680;5.394;2023-07-22T07:36:39;19.17;;;9.95;;
45522;SDS011;31254;51.680;5.394;2023-07-22T07:39:11;16.30;;;10.60;;
45522;SDS011;31254;51.680;5.394;2023-07-22T07:41:49;17.63;;;10.07;;
45522;SDS011;31254;51.680;5.394;2023-07-22T07:44:28;15.02;;;9.88;;
45522;SDS011;31254;51.680;5.394;2023-07-22T07:47:07;14.85;;;10.10;;
45522;SDS011;31254;51.680;5.394;2023-07-22T07:50:11;14.43;;;9.15;;
45522;SDS011;31254;51.680;5.394;2023-07-22T07:52:55;15.45;;;9.80;;
45522;SDS011;31254;51.680;5.394;2023-07-22T07:55:54;17.45;;;9.48;;
45522;SDS011;31254;51.680;5.394;2023-07-22T07:58:29;16.60;;;9.98;;
45522;SDS011;31254;51.680;5.394;2023-07-22T08:01:42;21.92;;;9.75;;
45522;SDS011;31254;51.680;5.394;2023-07-22T08:14:00;16.42;;;8.30;;
45522;SDS011;31254;51.680;5.394;2023-07-22T08:16:50;16.67;;;8.38;;
45522;SDS011;31254;51.680;5.394;2023-07-22T08:23:20;15.60;;;8.07;;
45522;SDS011;31254;51.680;5.394;2023-07-22T08:26:41;14.80;;;8.63;;
45522;SDS011;31254;51.680;5.394;2023-07-22T08:29:11;13.48;;;8.73;;
45522;SDS011;31254;51.680;5.394;2023-07-22T08:32:00;12.95;;;8.30;;
45522;SDS011;31254;51.680;5.394;2023-07-22T08:37:52;21.13;;;8.60;;
45522;SDS011;31254;51.680;5.394;2023-07-22T08:41:15;13.07;;;7.28;;
45522;SDS011;31254;51.680;5.394;2023-07-22T08:44:00;14.10;;;7.05;;
45522;SDS011;31254;51.680;5.394;2023-07-22T08:47:27;12.93;;;7.00;;
45522;SDS011;31254;51.680;5.394;2023-07-22T08:49:57;13.98;;;7.53;;
45522;SDS011;31254;51.680;5.394;2023-07-22T08:52:27;12.52;;;6.95;;
45522;SDS011;31254;51.680;5.394;2023-07-22T08:54:54;10.27;;;6.30;;
45522;SDS011;31254;51.680;5.394;2023-07-22T08:57:21;12.63;;;6.97;;
45522;SDS011;31254;51.680;5.394;2023-07-22T08:59:50;13.45;;;6.60;;
45522;SDS011;31254;51.680;5.394;2023-07-22T09:02:17;10.73;;;7.13;;
45522;SDS011;31254;51.680;5.394;2023-07-22T09:04:45;12.13;;;6.28;;
45522;SDS011;31254;51.680;5.394;2023-07-22T09:07:11;17.90;;;6.30;;
45522;SDS011;31254;51.680;5.394;2023-07-22T09:09:41;12.48;;;6.15;;
45522;SDS011;31254;51.680;5.394;2023-07-22T09:12:08;10.07;;;5.70;;
45522;SDS011;31254;51.680;5.394;2023-07-22T09:14:38;16.20;;;5.60;;
45522;SDS011;31254;51.680;5.394;2023-07-22T09:17:06;8.45;;;5.43;;
45522;SDS011;31254;51.680;5.394;2023-07-22T09:19:33;9.13;;;5.07;;
45522;SDS011;31254;51.680;5.394;2023-07-22T09:22:00;7.57;;;4.80;;
45522;SDS011;31254;51.680;5.394;2023-07-22T09:24:29;8.13;;;4.82;;
45522;SDS011;31254;51.680;5.394;2023-07-22T09:26:57;7.65;;;4.22;;
45522;SDS011;31254;51.680;5.394;2023-07-22T09:29:35;9.35;;;4.38;;
45522;SDS011;31254;51.680;5.394;2023-07-22T09:32:03;8.70;;;4.40;;
45522;SDS011;31254;51.680;5.394;2023-07-22T09:34:31;8.02;;;4.47;;
45522;SDS011;31254;51.680;5.394;2023-07-22T09:36:59;8.13;;;4.45;;
45522;SDS011;31254;51.680;5.394;2023-07-22T09:39:30;10.50;;;4.75;;
45522;SDS011;31254;51.680;5.394;2023-07-22T09:41:57;10.40;;;4.40;;
45522;SDS011;31254;51.680;5.394;2023-07-22T09:44:31;9.70;;;4.13;;
45522;SDS011;31254;51.680;5.394;2023-07-22T09:46:59;6.63;;;3.85;;
45522;SDS011;31254;51.680;5.394;2023-07-22T09:49:32;6.55;;;3.38;;
45522;SDS011;31254;51.680;5.394;2023-07-22T09:52:20;8.15;;;3.92;;
45522;SDS011;31254;51.680;5.394;2023-07-22T09:55:14;7.38;;;3.78;;
45522;SDS011;31254;51.680;5.394;2023-07-22T09:58:04;8.13;;;3.75;;
45522;SDS011;31254;51.680;5.394;2023-07-22T10:00:57;7.53;;;3.50;;
45522;SDS011;31254;51.680;5.394;2023-07-22T10:07:24;7.88;;;3.30;;
45522;SDS011;31254;51.680;5.394;2023-07-22T10:09:58;7.38;;;4.00;;
45522;SDS011;31254;51.680;5.394;2023-07-22T10:12:32;5.80;;;3.60;;
45522;SDS011;31254;51.680;5.394;2023-07-22T10:15:04;6.05;;;3.17;;
45522;SDS011;31254;51.680;5.394;2023-07-22T10:28:25;7.22;;;3.03;;
45522;SDS011;31254;51.680;5.394;2023-07-22T10:31:06;6.50;;;3.10;;
45522;SDS011;31254;51.680;5.394;2023-07-22T10:33:46;5.95;;;2.92;;
45522;SDS011;31254;51.680;5.394;2023-07-22T10:36:20;8.30;;;3.08;;
45522;SDS011;31254;51.680;5.394;2023-07-22T10:38:57;5.90;;;2.67;;
45522;SDS011;31254;51.680;5.394;2023-07-22T10:41:32;6.53;;;3.10;;
45522;SDS011;31254;51.680;5.394;2023-07-22T10:44:09;6.72;;;2.80;;
45522;SDS011;31254;51.680;5.394;2023-07-22T10:46:39;7.63;;;2.97;;
45522;SDS011;31254;51.680;5.394;2023-07-22T10:49:44;7.18;;;2.95;;
45522;SDS011;31254;51.680;5.394;2023-07-22T10:52:37;5.53;;;2.40;;
45522;SDS011;31254;51.680;5.394;2023-07-22T10:58:32;4.40;;;2.60;;
45522;SDS011;31254;51.680;5.394;2023-07-22T11:12:12;4.82;;;2.08;;
45522;SDS011;31254;51.680;5.394;2023-07-22T11:14:48;5.18;;;2.20;;
45522;SDS011;31254;51.680;5.394;2023-07-22T11:17:30;4.32;;;1.92;;
45522;SDS011;31254;51.680;5.394;2023-07-22T11:20:03;5.50;;;1.70;;
45522;SDS011;31254;51.680;5.394;2023-07-22T11:22:31;4.93;;;1.90;;
45522;SDS011;31254;51.680;5.394;2023-07-22T11:24:58;4.97;;;1.90;;
45522;SDS011;31254;51.680;5.394;2023-07-22T11:27:24;6.82;;;1.85;;
45522;SDS011;31254;51.680;5.394;2023-07-22T11:30:14;5.22;;;1.55;;
45522;SDS011;31254;51.680;5.394;2023-07-22T11:33:22;4.85;;;1.80;;
45522;SDS011;31254;51.680;5.394;2023-07-22T11:35:50;2.38;;;1.40;;
45522;SDS011;31254;51.680;5.394;2023-07-22T11:38:17;3.35;;;1.42;;
45522;SDS011;31254;51.680;5.394;2023-07-22T11:40:45;3.30;;;1.50;;
45522;SDS011;31254;51.680;5.394;2023-07-22T11:43:13;4.40;;;1.70;;
45522;SDS011;31254;51.680;5.394;2023-07-22T11:45:40;5.25;;;1.63;;
45522;SDS011;31254;51.680;5.394;2023-07-22T11:48:09;3.13;;;1.63;;
45522;SDS011;31254;51.680;5.394;2023-07-22T11:50:37;5.22;;;1.50;;
45522;SDS011;31254;51.680;5.394;2023-07-22T11:53:04;7.07;;;1.48;;
45522;SDS011;31254;51.680;5.394;2023-07-22T11:55:31;5.28;;;1.80;;
45522;SDS011;31254;51.680;5.394;2023-07-22T11:58:08;9.77;;;1.80;;
45522;SDS011;31254;51.680;5.394;2023-07-22T12:00:35;3.80;;;1.50;;
45522;SDS011;31254;51.680;5.394;2023-07-22T12:03:05;4.28;;;1.50;;
45522;SDS011;31254;51.680;5.394;2023-07-22T12:05:34;6.53;;;2.03;;
45522;SDS011;31254;51.680;5.394;2023-07-22T12:08:04;4.47;;;1.48;;
45522;SDS011;31254;51.680;5.394;2023-07-22T12:10:33;4.90;;;1.90;;
45522;SDS011;31254;51.680;5.394;2023-07-22T12:13:05;4.30;;;1.70;;
45522;SDS011;31254;51.680;5.394;2023-07-22T12:15:34;3.75;;;1.63;;
45522;SDS011;31254;51.680;5.394;2023-07-22T12:18:02;5.55;;;1.83;;
45522;SDS011;31254;51.680;5.394;2023-07-22T12:20:34;7.57;;;2.15;;
45522;SDS011;31254;51.680;5.394;2023-07-22T12:23:02;3.58;;;2.05;;
45522;SDS011;31254;51.680;5.394;2023-07-22T12:25:28;6.70;;;1.83;;
45522;SDS011;31254;51.680;5.394;2023-07-22T12:27:56;7.32;;;2.17;;
45522;SDS011;31254;51.680;5.394;2023-07-22T12:30:23;4.43;;;1.90;;
45522;SDS011;31254;51.680;5.394;2023-07-22T12:32:50;4.70;;;2.00;;
45522;SDS011;31254;51.680;5.394;2023-07-22T12:35:17;4.43;;;1.90;;
45522;SDS011;31254;51.680;5.394;2023-07-22T12:37:44;5.95;;;2.10;;
45522;SDS011;31254;51.680;5.394;2023-07-22T12:40:10;5.38;;;1.98;;
45522;SDS011;31254;51.680;5.394;2023-07-22T12:42:39;5.13;;;2.30;;
45522;SDS011;31254;51.680;5.394;2023-07-22T12:45:07;5.57;;;1.77;;
45522;SDS011;31254;51.680;5.394;2023-07-22T12:47:35;4.68;;;2.00;;
45522;SDS011;31254;51.680;5.394;2023-07-22T12:50:02;5.57;;;1.85;;
45522;SDS011;31254;51.680;5.394;2023-07-22T12:52:30;6.35;;;2.00;;
45522;SDS011;31254;51.680;5.394;2023-07-22T12:54:57;6.63;;;2.30;;
45522;SDS011;31254;51.680;5.394;2023-07-22T12:57:26;6.55;;;2.17;;
45522;SDS011;31254;51.680;5.394;2023-07-22T12:59:55;2.90;;;1.90;;
45522;SDS011;31254;51.680;5.394;2023-07-22T13:02:25;7.88;;;2.28;;
45522;SDS011;31254;51.680;5.394;2023-07-22T13:04:52;5.50;;;1.98;;
45522;SDS011;31254;51.680;5.394;2023-07-22T13:07:19;5.00;;;2.08;;
45522;SDS011;31254;51.680;5.394;2023-07-22T13:09:48;3.03;;;1.65;;
45522;SDS011;31254;51.680;5.394;2023-07-22T13:12:16;4.15;;;1.70;;
45522;SDS011;31254;51.680;5.394;2023-07-22T13:14:43;3.97;;;1.70;;
45522;SDS011;31254;51.680;5.394;2023-07-22T13:17:12;5.32;;;2.03;;
45522;SDS011;31254;51.680;5.394;2023-07-22T13:19:39;2.88;;;1.70;;
45522;SDS011;31254;51.680;5.394;2023-07-22T13:22:08;5.63;;;1.83;;
45522;SDS011;31254;51.680;5.394;2023-07-22T13:24:37;5.28;;;1.90;;
45522;SDS011;31254;51.680;5.394;2023-07-22T13:27:05;4.22;;;1.70;;
45522;SDS011;31254;51.680;5.394;2023-07-22T13:29:33;5.07;;;2.10;;
45522;SDS011;31254;51.680;5.394;2023-07-22T13:32:00;4.55;;;1.70;;
45522;SDS011;31254;51.680;5.394;2023-07-22T13:34:27;3.70;;;1.77;;
45522;SDS011;31254;51.680;5.394;2023-07-22T13:36:53;3.60;;;1.70;;
45522;SDS011;31254;51.680;5.394;2023-07-22T13:39:21;5.10;;;1.70;;
45522;SDS011;31254;51.680;5.394;2023-07-22T13:41:47;4.40;;;2.10;;
45522;SDS011;31254;51.680;5.394;2023-07-22T13:44:16;4.78;;;1.77;;
45522;SDS011;31254;51.680;5.394;2023-07-22T13:46:43;6.93;;;1.80;;
45522;SDS011;31254;51.680;5.394;2023-07-22T13:49:10;3.83;;;1.50;;
45522;SDS011;31254;51.680;5.394;2023-07-22T13:51:37;2.97;;;1.52;;
45522;SDS011;31254;51.680;5.394;2023-07-22T13:54:03;4.45;;;1.58;;
45522;SDS011;31254;51.680;5.394;2023-07-22T13:56:30;4.93;;;1.65;;
45522;SDS011;31254;51.680;5.394;2023-07-22T13:59:02;5.55;;;2.20;;
45522;SDS011;31254;51.680;5.394;2023-07-22T14:01:33;3.35;;;1.75;;
45522;SDS011;31254;51.680;5.394;2023-07-22T14:03:59;4.93;;;1.73;;
45522;SDS011;31254;51.680;5.394;2023-07-22T14:06:26;5.97;;;1.52;;
45522;SDS011;31254;51.680;5.394;2023-07-22T14:08:53;5.13;;;1.90;;
45522;SDS011;31254;51.680;5.394;2023-07-22T14:11:22;5.68;;;2.33;;
45522;SDS011;31254;51.680;5.394;2023-07-22T14:13:49;8.27;;;2.15;;
45522;SDS011;31254;51.680;5.394;2023-07-22T14:16:18;3.78;;;2.15;;
45522;SDS011;31254;51.680;5.394;2023-07-22T14:18:48;6.90;;;2.15;;
45522;SDS011;31254;51.680;5.394;2023-07-22T14:21:15;6.75;;;2.63;;
45522;SDS011;31254;51.680;5.394;2023-07-22T14:23:42;7.38;;;2.42;;
45522;SDS011;31254;51.680;5.394;2023-07-22T14:26:10;7.70;;;2.17;;
45522;SDS011;31254;51.680;5.394;2023-07-22T14:28:37;7.97;;;2.25;;
45522;SDS011;31254;51.680;5.394;2023-07-22T14:31:04;6.15;;;2.03;;
45522;SDS011;31254;51.680;5.394;2023-07-22T14:33:31;8.93;;;2.38;;
45522;SDS011;31254;51.680;5.394;2023-07-22T14:35:57;7.45;;;2.50;;
45522;SDS011;31254;51.680;5.394;2023-07-22T14:38:24;6.10;;;2.20;;
45522;SDS011;31254;51.680;5.394;2023-07-22T14:40:53;9.77;;;2.45;;
45522;SDS011;31254;51.680;5.394;2023-07-22T14:43:20;5.05;;;2.10;;
45522;SDS011;31254;51.680;5.394;2023-07-22T14:45:48;4.55;;;1.80;;
45522;SDS011;31254;51.680;5.394;2023-07-22T14:48:17;6.32;;;1.98;;
45522;SDS011;31254;51.680;5.394;2023-07-22T14:50:46;4.43;;;1.92;;
45522;SDS011;31254;51.680;5.394;2023-07-22T14:53:13;6.32;;;2.30;;
45522;SDS011;31254;51.680;5.394;2023-07-22T14:55:40;8.68;;;2.75;;
45522;SDS011;31254;51.680;5.394;2023-07-22T14:58:07;5.22;;;2.75;;
45522;SDS011;31254;51.680;5.394;2023-07-22T15:00:34;8.57;;;3.08;;
45522;SDS011;31254;51.680;5.394;2023-07-22T15:03:01;6.88;;;2.50;;
45522;SDS011;31254;51.680;5.394;2023-07-22T15:05:27;5.88;;;2.10;;
45522;SDS011;31254;51.680;5.394;2023-07-22T15:07:57;5.82;;;3.00;;
45522;SDS011;31254;51.680;5.394;2023-07-22T15:10:28;5.90;;;2.28;;
45522;SDS011;31254;51.680;5.394;2023-07-22T15:12:57;6.35;;;2.22;;
45522;SDS011;31254;51.680;5.394;2023-07-22T15:15:24;5.22;;;2.75;;
45522;SDS011;31254;51.680;5.394;2023-07-22T15:17:54;5.55;;;2.45;;
45522;SDS011;31254;51.680;5.394;2023-07-22T15:20:25;6.00;;;2.17;;
45522;SDS011;31254;51.680;5.394;2023-07-22T15:26:09;8.45;;;2.47;;
45522;SDS011;31254;51.680;5.394;2023-07-22T15:28:37;6.63;;;2.72;;
45522;SDS011;31254;51.680;5.394;2023-07-22T15:34:59;4.47;;;2.05;;
45522;SDS011;31254;51.680;5.394;2023-07-22T15:37:30;6.03;;;2.15;;
45522;SDS011;31254;51.680;5.394;2023-07-22T15:40:21;6.75;;;2.17;;
45522;SDS011;31254;51.680;5.394;2023-07-22T15:42:47;6.88;;;2.25;;
45522;SDS011;31254;51.680;5.394;2023-07-22T15:45:14;4.45;;;1.90;;
45522;SDS011;31254;51.680;5.394;2023-07-22T15:47:41;6.07;;;3.45;;
45522;SDS011;31254;51.680;5.394;2023-07-22T15:50:09;6.13;;;3.15;;
45522;SDS011;31254;51.680;5.394;2023-07-22T15:52:35;9.90;;;3.83;;
45522;SDS011;31254;51.680;5.394;2023-07-22T15:55:03;6.90;;;4.05;;
45522;SDS011;31254;51.680;5.394;2023-07-22T15:57:33;9.38;;;5.82;;
45522;SDS011;31254;51.680;5.394;2023-07-22T15:59:59;18.75;;;13.63;;
45522;SDS011;31254;51.680;5.394;2023-07-22T16:02:29;7.28;;;6.25;;
45522;SDS011;31254;51.680;5.394;2023-07-22T16:04:58;10.95;;;7.25;;
45522;SDS011;31254;51.680;5.394;2023-07-22T16:07:25;8.38;;;5.80;;
45522;SDS011;31254;51.680;5.394;2023-07-22T16:09:55;6.15;;;3.53;;
45522;SDS011;31254;51.680;5.394;2023-07-22T16:12:22;5.15;;;2.80;;
45522;SDS011;31254;51.680;5.394;2023-07-22T16:14:48;4.03;;;2.17;;
45522;SDS011;31254;51.680;5.394;2023-07-22T16:17:20;5.05;;;2.40;;
45522;SDS011;31254;51.680;5.394;2023-07-22T16:19:47;6.97;;;2.20;;
45522;SDS011;31254;51.680;5.394;2023-07-22T16:22:16;6.10;;;2.30;;
45522;SDS011;31254;51.680;5.394;2023-07-22T16:24:43;5.20;;;2.33;;
45522;SDS011;31254;51.680;5.394;2023-07-22T16:27:09;8.10;;;2.40;;
45522;SDS011;31254;51.680;5.394;2023-07-22T16:29:41;8.60;;;2.10;;
45522;SDS011;31254;51.680;5.394;2023-07-22T16:32:09;4.07;;;2.03;;
45522;SDS011;31254;51.680;5.394;2023-07-22T16:34:36;18.85;;;14.40;;
45522;SDS011;31254;51.680;5.394;2023-07-22T16:37:03;19.10;;;13.32;;
45522;SDS011;31254;51.680;5.394;2023-07-22T16:39:32;32.17;;;21.15;;
45522;SDS011;31254;51.680;5.394;2023-07-22T16:42:03;25.92;;;17.08;;
45522;SDS011;31254;51.680;5.394;2023-07-22T16:44:30;19.55;;;13.30;;
45522;SDS011;31254;51.680;5.394;2023-07-22T16:46:59;13.63;;;7.32;;
45522;SDS011;31254;51.680;5.394;2023-07-22T16:49:31;18.33;;;12.55;;
45522;SDS011;31254;51.680;5.394;2023-07-22T16:51:57;23.67;;;17.73;;
45522;SDS011;31254;51.680;5.394;2023-07-22T16:54:24;17.23;;;13.35;;
45522;SDS011;31254;51.680;5.394;2023-07-22T16:56:54;12.80;;;10.07;;
45522;SDS011;31254;51.680;5.394;2023-07-22T16:59:25;7.05;;;3.92;;
45522;SDS011;31254;51.680;5.394;2023-07-22T17:01:52;24.15;;;16.45;;
45522;SDS011;31254;51.680;5.394;2023-07-22T17:04:19;31.63;;;22.00;;
45522;SDS011;31254;51.680;5.394;2023-07-22T17:06:48;11.95;;;7.88;;
45522;SDS011;31254;51.680;5.394;2023-07-22T17:09:17;11.00;;;5.63;;
45522;SDS011;31254;51.680;5.394;2023-07-22T17:11:44;18.25;;;13.88;;
45522;SDS011;31254;51.680;5.394;2023-07-22T17:14:11;25.15;;;19.92;;
45522;SDS011;31254;51.680;5.394;2023-07-22T17:16:38;20.85;;;17.25;;
45522;SDS011;31254;51.680;5.394;2023-07-22T17:19:04;15.35;;;8.93;;
45522;SDS011;31254;51.680;5.394;2023-07-22T17:21:31;9.52;;;5.47;;
45522;SDS011;31254;51.680;5.394;2023-07-22T17:23:58;7.00;;;5.10;;
45522;SDS011;31254;51.680;5.394;2023-07-22T17:26:25;11.70;;;8.80;;
45522;SDS011;31254;51.680;5.394;2023-07-22T17:28:52;12.13;;;8.38;;
45522;SDS011;31254;51.680;5.394;2023-07-22T17:31:21;8.95;;;4.72;;
45522;SDS011;31254;51.680;5.394;2023-07-22T17:33:54;12.68;;;8.48;;
45522;SDS011;31254;51.680;5.394;2023-07-22T17:36:24;13.15;;;10.10;;
45522;SDS011;31254;51.680;5.394;2023-07-22T17:38:54;14.32;;;10.30;;
45522;SDS011;31254;51.680;5.394;2023-07-22T17:41:23;13.45;;;8.32;;